Terminal Aerodrome Forecast
Issued by NWS Sterling, VA

Current Version | Previous Version | Graphics & Text | Print | Product List | Glossary On
Versions: 1 2 3 4 5 6 7 8 9 10 11 12 13 14 15 16 17 18 19 20 21 22 23 24
000
FTUS41 KLWX 211445 AAA
TAFIAD
TAF AMD
KIAD 211445Z 2115/2218 19007KT P6SM VCSH SCT015 BKN045
     FM211600 21007KT 5SM SHRA VCTS BKN040CB
     FM211700 23008KT 3SM +TSRA OVC045CB
     FM212000 25007KT 5SM -SHRA OVC050
     FM212200 29006KT P6SM OVC045
     FM220200 31010G18KT P6SM SCT250=

USA.gov is the U.S. government's official web portal to all federal, state and local government web resources and services.